Time;durP1;ratioP1;P1;durP2;ratioP2;P2;SDS_P1;SDS_P2;PMS_P1;PMS_P2;Temp;Humidity;BMP_temperature;BMP_pressure;BME280_temperature;BME280_humidity;BME280_pressure;Samples;Min_cycle;Max_cycle;Signal;HPM_P1;HPM_P2
2022/04/06 21:42:42;;;;;;;;;11.33;11.33;;;;;;;;5172604;27;76878;-74
2022/04/06 21:45:08;;;;;;;;;12.00;12.00;;;;;;;;5155613;27;24311;-73
2022/04/06 21:47:33;;;;;;;;;12.33;12.00;;;;;;;;5156952;27;11546;-74
2022/04/06 21:49:59;;;;;;;;;16.75;11.00;;;;;;;;5157192;27;8796;-73
2022/04/06 21:52:24;;;;;;;;;12.25;11.00;;;;;;;;5155776;27;9687;-74
2022/04/06 21:54:50;;;;;;;;;9.25;9.25;;;;;;;;5156868;27;8895;-74
2022/04/06 21:57:15;;;;;;;;;12.00;12.00;;;;;;;;5154896;27;24930;-76
2022/04/06 21:59:42;;;;;;;;;14.33;12.67;;;;;;;;5156982;27;22375;-73
2022/04/06 22:02:08;;;;;;;;;10.50;10.50;;;;;;;;5154618;27;13961;-74
2022/04/06 22:04:33;;;;;;;;;11.50;9.00;;;;;;;;5157349;27;11782;-72
2022/04/06 22:06:58;;;;;;;;;12.25;9.00;;;;;;;;5156435;27;22670;-73
2022/04/06 22:09:23;;;;;;;;;16.00;14.00;;;;;;;;5155268;27;11037;-73
2022/04/06 22:11:49;;;;;;;;;12.50;11.75;;;;;;;;5156573;27;21692;-73
2022/04/06 22:14:14;;;;;;;;;19.50;16.00;;;;;;;;5156875;27;11976;-74
2022/04/06 22:16:42;;;;;;;;;12.67;12.67;;;;;;;;5156499;27;11775;-74
2022/04/06 22:19:07;;;;;;;;;10.00;10.00;;;;;;;;5156345;27;11495;-74
2022/04/06 22:21:32;;;;;;;;;15.75;12.00;;;;;;;;5155956;27;11638;-74
2022/04/06 22:23:58;;;;;;;;;11.25;8.50;;;;;;;;5156783;27;10626;-74
2022/04/06 22:26:23;;;;;;;;;11.00;8.75;;;;;;;;5156820;27;21395;-73
2022/04/06 22:28:48;;;;;;;;;12.50;9.50;;;;;;;;5157033;27;8795;-74
2022/04/06 22:31:14;;;;;;;;;12.50;9.00;;;;;;;;5156667;27;10297;-75
2022/04/06 22:33:39;;;;;;;;;10.75;6.50;;;;;;;;5157017;27;8837;-74
2022/04/06 22:36:04;;;;;;;;;11.50;9.50;;;;;;;;5156838;27;10303;-73
2022/04/06 22:38:30;;;;;;;;;13.00;9.00;;;;;;;;5156350;27;10407;-73
2022/04/06 22:40:56;;;;;;;;;8.75;8.00;;;;;;;;5155883;27;11411;-74
2022/04/06 22:43:21;;;;;;;;;10.00;8.75;;;;;;;;5155796;27;21682;-74
2022/04/06 22:45:47;;;;;;;;;9.00;6.25;;;;;;;;5155493;27;22051;-74
2022/04/06 22:48:12;;;;;;;;;9.00;9.00;;;;;;;;5155460;27;22998;-74
2022/04/06 22:50:37;;;;;;;;;12.00;7.50;;;;;;;;5156171;27;8878;-74
2022/04/06 22:53:02;;;;;;;;;9.50;8.00;;;;;;;;5147831;27;21577;-74
2022/04/06 22:55:28;;;;;;;;;7.50;7.50;;;;;;;;5140609;27;23353;-73
2022/04/06 22:57:53;;;;;;;;;9.00;9.00;;;;;;;;5142577;27;11782;-74
2022/04/06 23:00:19;;;;;;;;;9.50;7.50;;;;;;;;5142391;27;11606;-74
2022/04/06 23:02:45;;;;;;;;;12.00;11.75;;;;;;;;5142056;27;10342;-74
2022/04/06 23:05:10;;;;;;;;;8.75;7.75;;;;;;;;5141418;27;23321;-75
2022/04/06 23:07:36;;;;;;;;;8.75;8.00;;;;;;;;5141677;27;22911;-73
2022/04/06 23:10:01;;;;;;;;;9.00;9.00;;;;;;;;5141713;27;8887;-74
2022/04/06 23:12:26;;;;;;;;;8.25;8.00;;;;;;;;5141363;27;10857;-74
2022/04/06 23:14:53;;;;;;;;;9.25;9.00;;;;;;;;5141649;27;10511;-74
2022/04/06 23:17:18;;;;;;;;;10.00;9.25;;;;;;;;5140922;27;10539;-73
2022/04/06 23:19:44;;;;;;;;;11.00;9.00;;;;;;;;5141831;27;21392;-73
2022/04/06 23:22:09;;;;;;;;;10.00;9.00;;;;;;;;5142177;27;11136;-75
2022/04/06 23:24:37;;;;;;;;;6.00;6.00;;;;;;;;5140390;27;9102;-75
2022/04/06 23:27:02;;;;;;;;;10.50;9.00;;;;;;;;5141879;27;21435;-73
2022/04/06 23:29:28;;;;;;;;;13.25;9.00;;;;;;;;5141673;27;21384;-72
2022/04/06 23:31:54;;;;;;;;;14.00;10.25;;;;;;;;5141973;27;9623;-76
2022/04/06 23:34:19;;;;;;;;;11.25;11.25;;;;;;;;5141333;27;22254;-73
2022/04/06 23:36:45;;;;;;;;;12.00;11.25;;;;;;;;5141843;27;10385;-74
2022/04/06 23:39:10;;;;;;;;;12.33;12.33;;;;;;;;5139465;27;11252;-74
2022/04/06 23:41:35;;;;;;;;;9.75;9.75;;;;;;;;5140715;27;9726;-73
2022/04/06 23:44:01;;;;;;;;;12.00;8.50;;;;;;;;5140677;27;22330;-74
2022/04/06 23:46:27;;;;;;;;;13.00;13.00;;;;;;;;5141536;27;21495;-74
2022/04/06 23:48:52;;;;;;;;;13.67;12.33;;;;;;;;5141535;27;22532;-74
2022/04/06 23:51:18;;;;;;;;;12.00;12.00;;;;;;;;5141898;27;11652;-73
2022/04/06 23:53:43;;;;;;;;;11.33;11.00;;;;;;;;5141428;27;12512;-74
2022/04/06 23:56:09;;;;;;;;;16.67;12.67;;;;;;;;5141202;27;10746;-73
2022/04/06 23:58:34;;;;;;;;;12.00;10.67;;;;;;;;5139788;27;14037;-74
